Latheron, United Kingdom
Current Conditions -  °F | °C
As of 4:20 PM on Saturday 20 Dec 2014 (Local Time) from EGPC Reporting Station
Light Rain Light Rain  
Wind Chill: 31°   Ceiling: Unl
Heat Index: 39°   Visibility: 5mi
Dew Point: 36°   Wind: 14mph
Humidity: 87%   Direction: 280°W
Pressure: 30.03"   Gusts: NA
Location:  58.29°N, 3.35°W
Report Text: EGPC 201620Z AUTO 28012KT 8000 -RA FEW017/// SCT047/// 04/02 Q1017
Loading
Personal Weather Stations






























Interactive Weather Map New forecast layout! Learn more

10-Day Weather Forecast

Advertisements
Track Severe Weather on mobile